Time;durP1;ratioP1;P1;durP2;ratioP2;P2;SDS_P1;SDS_P2;PMS_P1;PMS_P2;Temp;Humidity;BMP_temperature;BMP_pressure;BME280_temperature;BME280_humidity;BME280_pressure;Samples;Min_cycle;Max_cycle;Signal;HPM_P1;HPM_P2
2023/02/01 00:00:54;;;;;;;31.67;11.63;;;;;;;;;;5096530;28;20040;-69
2023/02/01 00:03:20;;;;;;;27.47;11.43;;;;;;;;;;5078524;28;20389;-68
2023/02/01 00:05:54;;;;;;;27.47;12.13;;;;;;;;;;5062910;28;20039;-69
2023/02/01 00:08:23;;;;;;;28.47;12.70;;;;;;;;;;5079617;28;20028;-69
2023/02/01 00:10:49;;;;;;;29.20;12.30;;;;;;;;;;5062673;28;20032;-69
2023/02/01 00:13:18;;;;;;;24.67;11.77;;;;;;;;;;5079346;28;20048;-69
2023/02/01 00:15:44;;;;;;;29.97;12.10;;;;;;;;;;5079711;28;20482;-69
2023/02/01 00:18:09;;;;;;;28.10;11.93;;;;;;;;;;5062525;28;20089;-70
2023/02/01 00:20:35;;;;;;;27.97;11.60;;;;;;;;;;5079248;28;20032;-68
2023/02/01 00:23:01;;;;;;;25.87;11.53;;;;;;;;;;5079105;28;20050;-70
2023/02/01 00:25:28;;;;;;;28.77;11.97;;;;;;;;;;5079495;28;20065;-69
2023/02/01 00:27:56;;;;;;;25.17;11.47;;;;;;;;;;5095792;28;20469;-68
2023/02/01 00:30:24;;;;;;;32.93;12.80;;;;;;;;;;5062671;28;20122;-68
2023/02/01 00:32:51;;;;;;;23.73;11.00;;;;;;;;;;5112952;28;20092;-68
2023/02/01 00:35:18;;;;;;;27.77;12.33;;;;;;;;;;5062658;28;20462;-68
2023/02/01 00:37:44;;;;;;;31.07;11.50;;;;;;;;;;5079098;28;20124;-70
2023/02/01 00:40:12;;;;;;;30.30;13.27;;;;;;;;;;5095982;28;20028;-69
2023/02/01 00:42:38;;;;;;;32.03;12.47;;;;;;;;;;5078692;28;20059;-69
2023/02/01 00:45:04;;;;;;;31.47;12.93;;;;;;;;;;5062005;28;20128;-68
2023/02/01 00:47:31;;;;;;;27.83;12.37;;;;;;;;;;5095559;28;20140;-68
2023/02/01 00:49:58;;;;;;;31.37;12.27;;;;;;;;;;5077806;28;20476;-69
2023/02/01 00:52:30;;;;;;;30.90;12.70;;;;;;;;;;5079731;28;20053;-69
2023/02/01 00:54:55;;;;;;;31.93;13.27;;;;;;;;;;5095417;28;20063;-69
2023/02/01 01:01:06;;;;;;;30.73;12.33;;;;;;;;;;5113283;28;20050;-72
2023/02/01 01:03:37;;;;;;;30.37;12.70;;;;;;;;;;5078774;28;20457;-69
2023/02/01 01:06:04;;;;;;;27.50;12.30;;;;;;;;;;5095486;28;20032;-68
2023/02/01 01:08:31;;;;;;;34.30;13.77;;;;;;;;;;5078656;28;20093;-69
2023/02/01 01:10:56;;;;;;;27.80;11.83;;;;;;;;;;5061602;28;20035;-69
2023/02/01 01:13:22;;;;;;;26.93;12.27;;;;;;;;;;5061115;28;20055;-69
2023/02/01 01:15:48;;;;;;;32.97;12.70;;;;;;;;;;5113114;28;20704;-69
2023/02/01 01:18:16;;;;;;;27.33;12.07;;;;;;;;;;5061961;28;20501;-69
2023/02/01 01:20:43;;;;;;;32.10;12.67;;;;;;;;;;5095001;28;20046;-69
2023/02/01 01:23:10;;;;;;;29.90;11.00;;;;;;;;;;5061506;28;20032;-69
2023/02/01 01:25:38;;;;;;;27.90;11.57;;;;;;;;;;5061548;28;20059;-69
2023/02/01 01:28:04;;;;;;;30.00;12.87;;;;;;;;;;5077965;28;20126;-69
2023/02/01 01:30:29;;;;;;;26.60;11.77;;;;;;;;;;5077114;28;20548;-69
2023/02/01 01:32:55;;;;;;;26.90;11.83;;;;;;;;;;5060833;28;20059;-69
2023/02/01 01:35:21;;;;;;;31.33;13.40;;;;;;;;;;5060868;28;20070;-68
2023/02/01 01:37:47;;;;;;;29.10;12.77;;;;;;;;;;5077940;28;20092;-69
2023/02/01 01:40:13;;;;;;;26.23;11.77;;;;;;;;;;5077990;28;20446;-68
2023/02/01 01:42:40;;;;;;;31.13;12.67;;;;;;;;;;5094148;28;20135;-70
2023/02/01 01:45:20;;;;;;;29.27;13.23;;;;;;;;;;5094638;28;20031;-69
2023/02/01 01:47:48;;;;;;;34.43;12.97;;;;;;;;;;5077305;28;20047;-69
2023/02/01 01:50:16;;;;;;;29.23;12.93;;;;;;;;;;5094322;28;20088;-68
2023/02/01 01:52:44;;;;;;;28.77;12.73;;;;;;;;;;5077187;28;20035;-69
2023/02/01 01:55:11;;;;;;;31.23;12.27;;;;;;;;;;5076953;28;20043;-69
2023/02/01 01:57:42;;;;;;;35.17;13.57;;;;;;;;;;5094230;28;20114;-69
2023/02/01 02:00:09;;;;;;;28.43;12.30;;;;;;;;;;5077146;28;20035;-70
2023/02/01 02:02:44;;;;;;;34.00;12.10;;;;;;;;;;5077189;28;20031;-68
2023/02/01 02:05:12;;;;;;;33.27;13.63;;;;;;;;;;5094192;28;20122;-70
2023/02/01 02:07:40;;;;;;;29.97;13.80;;;;;;;;;;5110406;27;20122;-69
2023/02/01 02:10:10;;;;;;;28.47;12.03;;;;;;;;;;5097427;27;20035;-71
2023/02/01 02:12:42;;;;;;;30.47;12.83;;;;;;;;;;5114796;27;20123;-70
2023/02/01 02:15:09;;;;;;;34.03;14.13;;;;;;;;;;5097440;27;20077;-70
2023/02/01 02:17:51;;;;;;;32.20;13.83;;;;;;;;;;5114417;27;20039;-71
2023/02/01 02:20:36;;;;;;;32.70;13.53;;;;;;;;;;5114252;27;20039;-69
2023/02/01 02:23:14;;;;;;;30.53;12.80;;;;;;;;;;5080067;27;20092;-69
2023/02/01 02:26:02;;;;;;;36.70;13.67;;;;;;;;;;5097328;27;20122;-69
2023/02/01 02:28:27;;;;;;;38.30;14.37;;;;;;;;;;5097096;27;20031;-69
2023/02/01 02:31:12;;;;;;;32.70;12.80;;;;;;;;;;5080208;27;20442;-70
2023/02/01 02:33:46;;;;;;;32.07;14.10;;;;;;;;;;5097128;27;20035;-69
2023/02/01 02:36:17;;;;;;;37.73;12.90;;;;;;;;;;5097583;28;20096;-68
2023/02/01 02:38:52;;;;;;;30.30;12.50;;;;;;;;;;5114040;27;20066;-68
2023/02/01 02:54:45;;;;;;;33.67;14.30;;;;;;;;;;5097420;28;20039;-68
2023/02/01 02:55:33;;;;;;;31.88;14.05;;;;;;;;;;5097980;28;20030;-69
2023/02/01 03:06:18;;;;;;;36.40;14.87;;;;;;;;;;5096738;28;20484;-65
2023/02/01 03:08:45;;;;;;;32.13;13.85;;;;;;;;;;5096805;28;20035;-65
2023/02/01 03:11:13;;;;;;;37.43;15.00;;;;;;;;;;5096521;28;20093;-66
2023/02/01 03:13:51;;;;;;;33.23;13.50;;;;;;;;;;5114452;27;20059;-66
2023/02/01 03:16:16;;;;;;;46.37;15.90;;;;;;;;;;5117778;27;20069;-65
2023/02/01 03:18:51;;;;;;;32.27;14.23;;;;;;;;;;5083709;27;20469;-65
2023/02/01 03:21:21;;;;;;;36.13;15.20;;;;;;;;;;5117659;27;20113;-66
2023/02/01 03:23:48;;;;;;;37.40;14.68;;;;;;;;;;5100690;27;20358;-65
2023/02/01 03:26:15;;;;;;;32.50;13.80;;;;;;;;;;5100387;27;20039;-66
2023/02/01 03:28:46;;;;;;;33.67;15.00;;;;;;;;;;5100488;27;20415;-64
2023/02/01 03:31:13;;;;;;;40.05;15.38;;;;;;;;;;5117399;27;20123;-66
2023/02/01 03:33:38;;;;;;;35.87;14.73;;;;;;;;;;5083451;27;20050;-65
2023/02/01 03:36:06;;;;;;;35.57;15.10;;;;;;;;;;5100730;27;20043;-68
2023/02/01 03:38:50;;;;;;;36.27;14.23;;;;;;;;;;5083698;27;20476;-65
2023/02/01 03:41:24;;;;;;;39.13;14.53;;;;;;;;;;5083604;27;20058;-66
2023/02/01 03:43:50;;;;;;;36.17;14.70;;;;;;;;;;5117177;27;20043;-66
2023/02/01 03:46:19;;;;;;;33.83;13.80;;;;;;;;;;5083234;27;20107;-65
2023/02/01 03:48:45;;;;;;;35.87;13.67;;;;;;;;;;5100047;27;20051;-65
2023/02/01 03:51:12;;;;;;;34.63;15.17;;;;;;;;;;5116853;27;20423;-65
2023/02/01 03:53:40;;;;;;;39.77;14.97;;;;;;;;;;5099736;27;20072;-65
2023/02/01 03:56:06;;;;;;;39.93;15.53;;;;;;;;;;5099804;27;20030;-67
2023/02/01 03:58:33;;;;;;;41.13;15.43;;;;;;;;;;5100194;27;20042;-68
2023/02/01 04:00:59;;;;;;;33.73;14.77;;;;;;;;;;5099804;27;20038;-65
2023/02/01 04:03:28;;;;;;;43.83;15.93;;;;;;;;;;5099679;27;20035;-65
2023/02/01 04:05:54;;;;;;;33.97;14.63;;;;;;;;;;5083100;27;20031;-65
2023/02/01 04:08:23;;;;;;;39.27;16.10;;;;;;;;;;5099900;27;20139;-65
2023/02/01 04:10:48;;;;;;;44.40;16.97;;;;;;;;;;5115419;27;20059;-65
2023/02/01 04:13:14;;;;;;;41.43;15.93;;;;;;;;;;5082080;27;20039;-65
2023/02/01 04:15:40;;;;;;;41.50;15.63;;;;;;;;;;5082565;27;20104;-65
2023/02/01 04:18:05;;;;;;;46.17;16.40;;;;;;;;;;5082182;27;20095;-67
2023/02/01 04:20:31;;;;;;;43.53;16.33;;;;;;;;;;5082025;27;20477;-65
2023/02/01 04:22:57;;;;;;;47.43;16.93;;;;;;;;;;5116510;27;20390;-67
2023/02/01 04:25:23;;;;;;;41.90;16.30;;;;;;;;;;5116238;27;20031;-65
2023/02/01 04:27:48;;;;;;;40.20;15.10;;;;;;;;;;5116606;27;20487;-65
2023/02/01 04:30:14;;;;;;;45.10;16.73;;;;;;;;;;5082280;27;20361;-66
2023/02/01 04:32:40;;;;;;;45.50;15.53;;;;;;;;;;5099109;27;20047;-65
2023/02/01 04:35:06;;;;;;;37.43;15.60;;;;;;;;;;5099471;27;20031;-65
2023/02/01 04:37:31;;;;;;;44.20;15.80;;;;;;;;;;5133596;27;20031;-65
2023/02/01 04:39:57;;;;;;;45.07;16.17;;;;;;;;;;5082241;27;20128;-65
2023/02/01 04:42:23;;;;;;;42.10;16.33;;;;;;;;;;5133803;27;20039;-66
2023/02/01 04:44:49;;;;;;;42.43;16.63;;;;;;;;;;5080145;27;20069;-66
2023/02/01 04:47:15;;;;;;;49.80;16.70;;;;;;;;;;5081808;27;20038;-65
2023/02/01 04:49:41;;;;;;;49.20;16.67;;;;;;;;;;5114942;27;20027;-65
2023/02/01 04:52:07;;;;;;;47.10;16.53;;;;;;;;;;5116613;27;20051;-65
2023/02/01 04:54:33;;;;;;;44.87;17.50;;;;;;;;;;5116448;27;20449;-65
2023/02/01 04:56:59;;;;;;;44.57;16.23;;;;;;;;;;5099714;27;20035;-66
2023/02/01 04:59:24;;;;;;;49.60;16.90;;;;;;;;;;5099377;27;20428;-65
2023/02/01 05:01:50;;;;;;;42.43;16.03;;;;;;;;;;5099334;27;20043;-65
2023/02/01 05:04:18;;;;;;;41.20;16.63;;;;;;;;;;5116090;27;20465;-66
2023/02/01 05:06:44;;;;;;;44.80;17.33;;;;;;;;;;5099300;27;20107;-65
2023/02/01 05:09:09;;;;;;;41.37;15.77;;;;;;;;;;5081944;27;20028;-65
2023/02/01 05:14:33;;;;;;;43.10;16.13;;;;;;;;;;5075906;27;20051;-65
2023/02/01 05:17:00;;;;;;;50.03;18.17;;;;;;;;;;5081473;27;20461;-66
2023/02/01 05:19:26;;;;;;;47.50;16.43;;;;;;;;;;5098382;27;20043;-65
2023/02/01 05:21:51;;;;;;;39.50;15.83;;;;;;;;;;5081648;27;20091;-66
2023/02/01 05:24:20;;;;;;;48.70;17.00;;;;;;;;;;5132422;27;20137;-65
2023/02/01 05:26:46;;;;;;;48.90;17.97;;;;;;;;;;5081360;27;20365;-65
2023/02/01 05:29:12;;;;;;;46.80;17.07;;;;;;;;;;5098492;27;20103;-65
2023/02/01 05:31:38;;;;;;;42.03;17.30;;;;;;;;;;5081296;27;20388;-65
2023/02/01 05:34:04;;;;;;;51.30;17.27;;;;;;;;;;5098382;27;20042;-65
2023/02/01 05:36:29;;;;;;;45.87;16.67;;;;;;;;;;5097774;27;20042;-65
2023/02/01 05:38:55;;;;;;;47.27;17.63;;;;;;;;;;5081342;27;20458;-65
2023/02/01 05:41:21;;;;;;;43.67;16.17;;;;;;;;;;5115054;27;20556;-65
2023/02/01 05:43:46;;;;;;;45.23;17.27;;;;;;;;;;5098181;27;20528;-65
2023/02/01 05:46:12;;;;;;;48.20;16.53;;;;;;;;;;5080970;27;20480;-67
2023/02/01 05:48:41;;;;;;;50.43;16.53;;;;;;;;;;5114775;27;20046;-66
2023/02/01 05:51:07;;;;;;;42.93;16.07;;;;;;;;;;5114895;27;20083;-66
2023/02/01 05:53:32;;;;;;;42.07;15.80;;;;;;;;;;5114927;27;20043;-65
2023/02/01 05:55:58;;;;;;;39.47;15.77;;;;;;;;;;5097678;27;20027;-65
2023/02/01 05:58:24;;;;;;;46.73;16.63;;;;;;;;;;5080864;27;20547;-65
2023/02/01 06:00:49;;;;;;;44.50;16.27;;;;;;;;;;5080803;27;20027;-65
2023/02/01 06:03:15;;;;;;;38.43;14.67;;;;;;;;;;5132731;27;20039;-65
2023/02/01 06:05:43;;;;;;;43.47;16.10;;;;;;;;;;5097797;27;20075;-65
2023/02/01 06:08:08;;;;;;;36.63;15.33;;;;;;;;;;5097518;27;20041;-65
2023/02/01 06:10:34;;;;;;;36.30;15.50;;;;;;;;;;5080997;27;20027;-65
2023/02/01 06:13:00;;;;;;;38.60;16.23;;;;;;;;;;5097707;27;20047;-66
2023/02/01 06:15:25;;;;;;;36.03;14.57;;;;;;;;;;5097679;27;20505;-65
2023/02/01 06:17:51;;;;;;;34.23;15.00;;;;;;;;;;5080558;27;20031;-65
2023/02/01 06:20:17;;;;;;;41.30;15.00;;;;;;;;;;5080512;27;20038;-66
2023/02/01 06:22:42;;;;;;;35.23;14.60;;;;;;;;;;5097381;27;20035;-65
2023/02/01 06:25:09;;;;;;;37.83;14.33;;;;;;;;;;5114984;27;20489;-65
2023/02/01 06:27:35;;;;;;;40.23;15.30;;;;;;;;;;5114211;27;20059;-67
2023/02/01 06:30:01;;;;;;;40.27;15.20;;;;;;;;;;5114750;27;20035;-65
2023/02/01 06:32:30;;;;;;;38.90;15.20;;;;;;;;;;5098290;27;20047;-65
2023/02/01 06:34:56;;;;;;;38.90;14.63;;;;;;;;;;5097180;27;20094;-65
2023/02/01 06:37:24;;;;;;;38.47;14.97;;;;;;;;;;5097313;28;20125;-65
2023/02/01 06:39:49;;;;;;;36.07;14.47;;;;;;;;;;5114028;27;20035;-65
2023/02/01 06:42:15;;;;;;;34.93;15.80;;;;;;;;;;5097183;27;20039;-65
2023/02/01 06:44:40;;;;;;;40.47;15.33;;;;;;;;;;5097194;28;20035;-65
2023/02/01 06:47:06;;;;;;;38.27;14.73;;;;;;;;;;5080495;27;20054;-66
2023/02/01 06:49:32;;;;;;;35.10;14.17;;;;;;;;;;5096171;28;20089;-65
2023/02/01 06:51:59;;;;;;;36.27;15.20;;;;;;;;;;5080242;28;20047;-64
2023/02/01 06:54:26;;;;;;;35.33;14.77;;;;;;;;;;5097106;28;20045;-66
2023/02/01 06:56:51;;;;;;;40.70;15.73;;;;;;;;;;5080181;28;20100;-66
2023/02/01 06:59:17;;;;;;;39.00;15.07;;;;;;;;;;5080134;28;20482;-65
2023/02/01 07:01:42;;;;;;;35.87;14.60;;;;;;;;;;5079828;28;20502;-65
2023/02/01 07:04:13;;;;;;;38.27;15.03;;;;;;;;;;5096733;28;20566;-65
2023/02/01 07:06:41;;;;;;;38.38;15.20;;;;;;;;;;5095091;28;20034;-65
2023/02/01 07:09:07;;;;;;;37.30;15.53;;;;;;;;;;5097861;28;20126;-66
2023/02/01 07:11:32;;;;;;;38.03;14.50;;;;;;;;;;5077371;28;20127;-66
2023/02/01 07:13:58;;;;;;;39.27;15.03;;;;;;;;;;5061047;28;20047;-65
2023/02/01 07:16:24;;;;;;;38.77;15.30;;;;;;;;;;5060865;28;20059;-65
2023/02/01 07:18:50;;;;;;;36.47;15.13;;;;;;;;;;5074274;28;20035;-65
2023/02/01 07:21:16;;;;;;;34.17;14.57;;;;;;;;;;5113385;28;20541;-65
2023/02/01 07:23:41;;;;;;;30.87;14.43;;;;;;;;;;5112049;28;20032;-65
2023/02/01 07:26:09;;;;;;;38.60;14.67;;;;;;;;;;5095975;28;20031;-66
2023/02/01 07:28:35;;;;;;;34.50;14.20;;;;;;;;;;5096118;28;20031;-66
2023/02/01 07:31:05;;;;;;;35.43;14.47;;;;;;;;;;5114320;28;20049;-65
2023/02/01 07:33:30;;;;;;;31.17;14.17;;;;;;;;;;5097910;28;20031;-65
2023/02/01 07:35:56;;;;;;;34.50;15.30;;;;;;;;;;5080825;28;20031;-65
2023/02/01 07:38:23;;;;;;;36.27;14.60;;;;;;;;;;5097422;28;20039;-65
2023/02/01 07:40:49;;;;;;;31.60;14.07;;;;;;;;;;5114708;28;20041;-65
2023/02/01 07:43:15;;;;;;;34.07;14.77;;;;;;;;;;5097760;28;20035;-65
2023/02/01 07:45:41;;;;;;;35.20;14.47;;;;;;;;;;5097708;28;20023;-65
2023/02/01 07:48:06;;;;;;;36.90;14.77;;;;;;;;;;5097482;28;20070;-69
2023/02/01 07:50:32;;;;;;;33.30;14.57;;;;;;;;;;5097811;28;20152;-65
2023/02/01 07:53:01;;;;;;;32.27;13.90;;;;;;;;;;5097400;28;20039;-65
2023/02/01 07:55:27;;;;;;;35.60;14.30;;;;;;;;;;5131432;28;20447;-65
2023/02/01 07:57:52;;;;;;;39.57;14.30;;;;;;;;;;5114366;28;20046;-65
2023/02/01 08:03:05;;;;;;;32.67;13.93;;;;;;;;;;5135325;27;20035;-65
2023/02/01 08:05:30;;;;;;;30.17;13.70;;;;;;;;;;5118179;27;20529;-65
2023/02/01 08:07:56;;;;;;;30.63;13.27;;;;;;;;;;5101072;27;20492;-65
2023/02/01 08:10:21;;;;;;;34.07;13.90;;;;;;;;;;5100605;27;20037;-65
2023/02/01 08:12:48;;;;;;;30.50;13.90;;;;;;;;;;5100613;27;20134;-64
2023/02/01 08:15:17;;;;;;;29.80;13.03;;;;;;;;;;5100619;27;20058;-65
2023/02/01 08:17:50;;;;;;;26.63;12.90;;;;;;;;;;5100761;27;20035;-65
2023/02/01 08:20:16;;;;;;;29.90;13.57;;;;;;;;;;5113744;28;20057;-63
2023/02/01 08:22:41;;;;;;;30.03;13.13;;;;;;;;;;5080416;28;20122;-65
2023/02/01 08:25:07;;;;;;;32.40;13.47;;;;;;;;;;5097550;28;20427;-65
2023/02/01 08:27:33;;;;;;;26.67;13.00;;;;;;;;;;5063668;28;20038;-65
2023/02/01 08:29:59;;;;;;;26.50;12.17;;;;;;;;;;5080380;28;20550;-65
2023/02/01 08:32:25;;;;;;;26.07;12.73;;;;;;;;;;5080326;28;20050;-65
2023/02/01 08:34:51;;;;;;;26.67;12.00;;;;;;;;;;5104980;27;20469;-64
2023/02/01 08:37:16;;;;;;;29.63;13.00;;;;;;;;;;5115766;27;20041;-65
2023/02/01 08:39:44;;;;;;;27.97;13.17;;;;;;;;;;5113527;27;20023;-65
2023/02/01 08:44:54;;;;;;;33.10;14.17;;;;;;;;;;5114964;27;20068;-65
2023/02/01 08:47:20;;;;;;;34.17;14.87;;;;;;;;;;5115540;27;20416;-65
2023/02/01 08:49:46;;;;;;;28.33;13.30;;;;;;;;;;5096384;27;20480;-65
2023/02/01 08:52:11;;;;;;;25.40;12.13;;;;;;;;;;5115750;27;20046;-64
2023/02/01 08:54:37;;;;;;;30.80;14.80;;;;;;;;;;5114823;27;20039;-65
2023/02/01 08:57:03;;;;;;;27.23;13.53;;;;;;;;;;5095790;27;20368;-65
2023/02/01 08:59:29;;;;;;;27.27;13.67;;;;;;;;;;5115134;27;20121;-64
2023/02/01 09:01:55;;;;;;;29.23;13.87;;;;;;;;;;5115224;27;20172;-65
2023/02/01 09:04:21;;;;;;;30.13;14.13;;;;;;;;;;5115173;27;20137;-64
2023/02/01 09:06:47;;;;;;;27.27;13.20;;;;;;;;;;5098086;27;20053;-65
2023/02/01 09:09:12;;;;;;;31.53;14.13;;;;;;;;;;5096888;27;20028;-67
2023/02/01 09:11:38;;;;;;;32.00;13.90;;;;;;;;;;5097310;27;20035;-66
2023/02/01 09:14:04;;;;;;;28.47;13.93;;;;;;;;;;5098225;27;20058;-65
2023/02/01 09:16:29;;;;;;;30.40;13.97;;;;;;;;;;5096227;27;20036;-65
2023/02/01 09:18:55;;;;;;;30.13;13.93;;;;;;;;;;5097990;27;20035;-65
2023/02/01 09:21:21;;;;;;;29.67;14.43;;;;;;;;;;5132083;27;20042;-65
2023/02/01 09:23:48;;;;;;;28.00;13.47;;;;;;;;;;5097977;27;20068;-65
2023/02/01 09:26:14;;;;;;;29.57;14.20;;;;;;;;;;5113160;27;20039;-65
2023/02/01 09:28:39;;;;;;;30.90;13.83;;;;;;;;;;5098066;27;20039;-66
2023/02/01 09:31:07;;;;;;;26.33;13.37;;;;;;;;;;5097739;27;20019;-65
2023/02/01 09:33:33;;;;;;;28.13;13.77;;;;;;;;;;5095986;27;20035;-64
2023/02/01 09:36:00;;;;;;;30.97;14.60;;;;;;;;;;5098917;27;20534;-64
2023/02/01 09:38:28;;;;;;;29.57;13.57;;;;;;;;;;5099133;27;20142;-65
2023/02/01 09:40:54;;;;;;;27.83;13.93;;;;;;;;;;5099155;27;20080;-64
2023/02/01 09:43:31;;;;;;;29.40;14.47;;;;;;;;;;5134075;27;20081;-65
2023/02/01 09:46:00;;;;;;;31.40;14.53;;;;;;;;;;5082057;27;20066;-65
2023/02/01 09:48:40;;;;;;;26.17;13.57;;;;;;;;;;5082278;27;20066;-64
2023/02/01 09:51:10;;;;;;;29.40;14.30;;;;;;;;;;5099176;27;20031;-65
2023/02/01 09:53:39;;;;;;;34.22;14.07;;;;;;;;;;5099205;27;20035;-64
2023/02/01 09:56:14;;;;;;;27.37;13.37;;;;;;;;;;5133134;27;20129;-65
2023/02/01 09:59:10;;;;;;;29.90;14.13;;;;;;;;;;5133058;27;20031;-67
2023/02/01 10:01:36;;;;;;;31.53;14.77;;;;;;;;;;5085294;27;20050;-64
2023/02/01 10:04:03;;;;;;;29.13;14.33;;;;;;;;;;5098672;27;20045;-65
2023/02/01 10:06:53;;;;;;;31.37;15.00;;;;;;;;;;5115537;27;20115;-64
2023/02/01 10:09:19;;;;;;;34.00;14.85;;;;;;;;;;5081761;27;20069;-65
2023/02/01 10:11:51;;;;;;;30.23;14.17;;;;;;;;;;5097762;27;20070;-65
2023/02/01 10:14:35;;;;;;;28.23;14.47;;;;;;;;;;5081225;27;20054;-66
2023/02/01 10:17:11;;;;;;;29.87;15.33;;;;;;;;;;5098057;27;20392;-66
2023/02/01 10:19:53;;;;;;;32.80;14.43;;;;;;;;;;5115768;27;20039;-64
2023/02/01 10:22:25;;;;;;;33.00;14.83;;;;;;;;;;5114979;27;20035;-65
2023/02/01 10:25:02;;;;;;;30.30;14.47;;;;;;;;;;5081421;27;20153;-64
2023/02/01 10:27:32;;;;;;;32.80;14.00;;;;;;;;;;5080641;27;20043;-64
2023/02/01 10:30:00;;;;;;;34.23;14.27;;;;;;;;;;5097946;27;20468;-65
2023/02/01 10:32:31;;;;;;;30.20;13.97;;;;;;;;;;5097843;27;20043;-65
2023/02/01 10:35:01;;;;;;;31.77;14.07;;;;;;;;;;5115081;27;20068;-65
2023/02/01 10:37:28;;;;;;;28.77;14.57;;;;;;;;;;5115126;27;20076;-66
2023/02/01 10:39:55;;;;;;;32.30;14.37;;;;;;;;;;5098116;28;20035;-65
2023/02/01 10:42:31;;;;;;;34.90;15.47;;;;;;;;;;5098033;27;20541;-66
2023/02/01 10:44:59;;;;;;;32.50;15.27;;;;;;;;;;5114707;27;20085;-65
2023/02/01 10:47:25;;;;;;;28.37;14.40;;;;;;;;;;5114713;28;20066;-65
2023/02/01 10:49:50;;;;;;;31.03;14.33;;;;;;;;;;5097935;28;20135;-65
2023/02/01 10:52:35;;;;;;;31.47;14.60;;;;;;;;;;5080747;28;20489;-66
2023/02/01 10:55:32;;;;;;;28.57;13.57;;;;;;;;;;5082893;28;20051;-66
2023/02/01 10:57:59;;;;;;;29.20;13.57;;;;;;;;;;5081013;28;20480;-67
2023/02/01 11:00:25;;;;;;;28.57;14.93;;;;;;;;;;5081042;28;20627;-66
2023/02/01 11:02:54;;;;;;;27.70;14.20;;;;;;;;;;5097781;28;20038;-66
2023/02/01 11:05:39;;;;;;;28.27;14.33;;;;;;;;;;5114146;28;20047;-67
2023/02/01 11:08:05;;;;;;;31.67;14.37;;;;;;;;;;5110913;28;20061;-66
2023/02/01 11:10:35;;;;;;;28.97;13.97;;;;;;;;;;5096470;28;20039;-66
2023/02/01 11:13:13;;;;;;;22.17;11.82;;;;;;;;;;5093823;28;20031;-65
2023/02/01 11:15:42;;;;;;;24.30;12.70;;;;;;;;;;5131166;28;20708;-64
2023/02/01 11:18:14;;;;;;;25.53;12.43;;;;;;;;;;5130367;28;20053;-66
2023/02/01 11:20:49;;;;;;;29.67;14.00;;;;;;;;;;5097802;28;20481;-65
2023/02/01 11:23:17;;;;;;;24.37;11.90;;;;;;;;;;5114490;28;20480;-68
2023/02/01 11:25:50;;;;;;;22.77;12.03;;;;;;;;;;5094120;28;20031;-66
2023/02/01 11:28:17;;;;;;;21.83;12.13;;;;;;;;;;5078248;28;20027;-64
2023/02/01 11:30:45;;;;;;;25.40;10.97;;;;;;;;;;5079804;28;20373;-65
2023/02/01 11:33:18;;;;;;;21.40;10.30;;;;;;;;;;5079940;28;20043;-65
2023/02/01 11:35:45;;;;;;;18.13;9.80;;;;;;;;;;5081407;27;20031;-67
2023/02/01 11:38:18;;;;;;;18.03;9.60;;;;;;;;;;5099401;27;20091;-65
2023/02/01 11:40:46;;;;;;;20.60;9.83;;;;;;;;;;5099529;27;20030;-66
2023/02/01 11:43:28;;;;;;;18.07;9.57;;;;;;;;;;5082021;27;20038;-65
2023/02/01 11:45:58;;;;;;;17.87;8.97;;;;;;;;;;5095964;27;20037;-67
2023/02/01 11:48:28;;;;;;;17.77;8.43;;;;;;;;;;5115913;27;20497;-65
2023/02/01 11:51:01;;;;;;;18.17;9.13;;;;;;;;;;5114233;27;20035;-64
2023/02/01 11:53:34;;;;;;;16.10;8.30;;;;;;;;;;5098517;27;20568;-65
2023/02/01 11:56:20;;;;;;;18.13;9.37;;;;;;;;;;5093370;27;20035;-64
2023/02/01 11:58:49;;;;;;;20.33;9.80;;;;;;;;;;5108703;27;20699;-65
2023/02/01 12:01:14;;;;;;;19.30;9.37;;;;;;;;;;5079053;27;20144;-66
2023/02/01 12:03:50;;;;;;;20.10;10.10;;;;;;;;;;5115711;27;20131;-66
2023/02/01 12:06:22;;;;;;;19.67;10.03;;;;;;;;;;5110408;27;20549;-66
2023/02/01 12:08:54;;;;;;;20.43;9.43;;;;;;;;;;5082256;27;20464;-65
2023/02/01 12:11:43;;;;;;;16.47;9.10;;;;;;;;;;5093789;28;20024;-65
2023/02/01 12:14:25;;;;;;;18.17;8.63;;;;;;;;;;5071595;28;20063;-65
2023/02/01 12:16:51;;;;;;;17.23;9.30;;;;;;;;;;5056979;28;20527;-65
2023/02/01 12:19:29;;;;;;;17.50;8.43;;;;;;;;;;5073509;28;20043;-65
2023/02/01 12:22:02;;;;;;;26.27;8.43;;;;;;;;;;5089708;28;20387;-65
2023/02/01 12:24:34;;;;;;;16.20;8.03;;;;;;;;;;5070804;28;20032;-66
2023/02/01 12:27:22;;;;;;;19.47;9.87;;;;;;;;;;5072306;28;20040;-65
2023/02/01 12:29:58;;;;;;;18.07;9.07;;;;;;;;;;5071493;28;20028;-65
2023/02/01 12:32:36;;;;;;;16.20;8.53;;;;;;;;;;5048673;28;20044;-65
2023/02/01 12:35:13;;;;;;;18.93;9.20;;;;;;;;;;5070449;28;20033;-66
2023/02/01 12:37:46;;;;;;;22.90;10.07;;;;;;;;;;5083695;28;20032;-65
2023/02/01 12:40:30;;;;;;;18.73;9.33;;;;;;;;;;5074288;28;20091;-65
2023/02/01 12:42:56;;;;;;;22.33;9.90;;;;;;;;;;5051979;28;20379;-64
2023/02/01 12:45:31;;;;;;;19.37;9.63;;;;;;;;;;5051735;28;20040;-65
2023/02/01 12:48:05;;;;;;;17.50;8.87;;;;;;;;;;5074481;28;20036;-65
2023/02/01 12:50:43;;;;;;;16.30;8.53;;;;;;;;;;5108010;28;20040;-64
2023/02/01 12:53:19;;;;;;;16.93;8.90;;;;;;;;;;5073614;28;20351;-65
2023/02/01 12:55:51;;;;;;;21.83;9.33;;;;;;;;;;5069742;28;20428;-65
2023/02/01 12:58:35;;;;;;;19.93;9.90;;;;;;;;;;5073347;28;20028;-65
2023/02/01 13:01:08;;;;;;;18.77;9.07;;;;;;;;;;5055623;28;20459;-64
2023/02/01 13:03:43;;;;;;;20.47;9.47;;;;;;;;;;5057516;28;20035;-64
2023/02/01 13:06:12;;;;;;;21.07;9.37;;;;;;;;;;5107312;28;20032;-65
2023/02/01 13:08:41;;;;;;;23.40;9.70;;;;;;;;;;5085648;28;20094;-65
2023/02/01 13:11:17;;;;;;;19.53;9.77;;;;;;;;;;5056585;28;20059;-65
2023/02/01 13:13:56;;;;;;;20.23;8.73;;;;;;;;;;5087605;28;20075;-65
2023/02/01 13:16:45;;;;;;;18.33;9.00;;;;;;;;;;5083310;28;20509;-65
2023/02/01 13:19:20;;;;;;;16.80;8.37;;;;;;;;;;5117615;27;20200;-64
2023/02/01 13:21:48;;;;;;;20.27;8.73;;;;;;;;;;5082903;28;20836;-65
2023/02/01 13:24:23;;;;;;;19.73;9.90;;;;;;;;;;5082649;28;20028;-65
2023/02/01 13:26:48;;;;;;;25.37;11.13;;;;;;;;;;5082528;28;20031;-65
2023/02/01 13:29:16;;;;;;;21.47;10.13;;;;;;;;;;5076909;28;20025;-64
2023/02/01 13:31:45;;;;;;;23.50;10.37;;;;;;;;;;5099959;28;20039;-65
2023/02/01 13:34:46;;;;;;;21.67;9.53;;;;;;;;;;5067048;28;20032;-65
2023/02/01 13:37:12;;;;;;;;;;;;;;;;;;5035193;28;20032;-64
2023/02/01 13:39:42;;;;;;;21.07;10.17;;;;;;;;;;5052799;28;19912;-65
2023/02/01 13:42:14;;;;;;;23.30;10.50;;;;;;;;;;5081684;28;20035;-65
2023/02/01 13:45:00;;;;;;;24.00;11.53;;;;;;;;;;5078394;28;20039;-66
2023/02/01 13:47:31;;;;;;;25.87;11.07;;;;;;;;;;5080734;28;20487;-65
2023/02/01 13:50:20;;;;;;;19.87;10.17;;;;;;;;;;5079223;28;20458;-65
2023/02/01 13:52:51;;;;;;;23.73;10.90;;;;;;;;;;5071273;28;20052;-65
2023/02/01 13:55:20;;;;;;;24.90;11.57;;;;;;;;;;5069704;28;20035;-65
2023/02/01 13:57:46;;;;;;;18.43;9.33;;;;;;;;;;5053700;28;20165;-65
2023/02/01 14:00:26;;;;;;;20.27;10.33;;;;;;;;;;5074882;28;20074;-65
2023/02/01 14:03:01;;;;;;;22.37;9.60;;;;;;;;;;5096483;28;20542;-64
2023/02/01 14:05:27;;;;;;;19.07;9.07;;;;;;;;;;5080804;28;20126;-64
2023/02/01 14:08:09;;;;;;;18.03;8.07;;;;;;;;;;5083206;28;20127;-65
2023/02/01 14:10:44;;;;;;;17.83;8.73;;;;;;;;;;5077746;28;20379;-64
2023/02/01 14:13:21;;;;;;;17.40;8.40;;;;;;;;;;5092031;27;20097;-64
2023/02/01 14:16:02;;;;;;;18.60;8.97;;;;;;;;;;5112616;27;20314;-65
2023/02/01 14:18:37;;;;;;;20.77;10.20;;;;;;;;;;5095700;27;20387;-64
2023/02/01 14:21:09;;;;;;;22.33;10.10;;;;;;;;;;5078296;27;20084;-65
2023/02/01 14:23:39;;;;;;;25.00;11.07;;;;;;;;;;5110096;28;20131;-65
2023/02/01 14:26:07;;;;;;;20.20;10.40;;;;;;;;;;5129689;27;20039;-65
2023/02/01 14:28:35;;;;;;;23.17;11.20;;;;;;;;;;5130937;27;20130;-65
2023/02/01 14:31:13;;;;;;;26.77;11.03;;;;;;;;;;5112816;27;20053;-65
2023/02/01 14:33:41;;;;;;;22.67;11.00;;;;;;;;;;5094164;27;20027;-65
2023/02/01 14:36:12;;;;;;;23.43;10.70;;;;;;;;;;5113411;27;20070;-65
2023/02/01 14:38:38;;;;;;;23.33;11.52;;;;;;;;;;5129726;27;20047;-64
2023/02/01 14:41:16;;;;;;;30.63;11.70;;;;;;;;;;5130959;27;20043;-65
2023/02/01 14:43:57;;;;;;;25.70;11.67;;;;;;;;;;5109929;27;20035;-65
2023/02/01 14:46:42;;;;;;;23.95;10.98;;;;;;;;;;5111718;27;20031;-65
2023/02/01 14:49:09;;;;;;;24.97;11.97;;;;;;;;;;5096690;27;20045;-65
2023/02/01 14:51:36;;;;;;;24.87;11.87;;;;;;;;;;5113456;28;20035;-65
2023/02/01 14:54:02;;;;;;;26.17;12.30;;;;;;;;;;5131553;27;20101;-64
2023/02/01 14:56:28;;;;;;;28.00;12.83;;;;;;;;;;5092698;28;20124;-65
2023/02/01 14:59:09;;;;;;;31.43;14.03;;;;;;;;;;5076662;28;20544;-65
2023/02/01 15:01:38;;;;;;;34.13;15.00;;;;;;;;;;5093122;28;20036;-66
2023/02/01 15:04:17;;;;;;;29.83;13.30;;;;;;;;;;5092950;28;20036;-65